createdAt,value
2022-10-26T00:01:12.513Z,101339.91
2022-10-26T00:03:41.664Z,101337.28
2022-10-26T00:06:18.505Z,101338.06
2022-10-26T00:08:46.310Z,101329.41
2022-10-26T00:11:14.442Z,101327.63
2022-10-26T00:13:42.346Z,101322.47
2022-10-26T00:16:16.084Z,101303.28
2022-10-26T00:18:43.827Z,101317.22
2022-10-26T00:21:11.703Z,101317.22
2022-10-26T00:23:39.032Z,101318.97
2022-10-26T00:26:06.965Z,101319.88
2022-10-26T00:28:34.225Z,101311.31
2022-10-26T00:31:06.776Z,101304.31
2022-10-26T00:33:34.412Z,101308.56
2022-10-26T00:36:01.669Z,101308.69
2022-10-26T00:38:29.230Z,101312.13
2022-10-26T00:43:24.897Z,101303.53
2022-10-26T00:45:55.429Z,101295.66
2022-10-26T00:48:26.424Z,101297.44
2022-10-26T00:50:55.111Z,101292.34
2022-10-26T00:53:22.444Z,101292.28
2022-10-26T00:55:52.467Z,101297.41
2022-10-26T00:58:21.769Z,101301.72
2022-10-26T01:00:49.716Z,101295.72
2022-10-26T01:03:17.588Z,101284.47
2022-10-26T01:05:47.712Z,101287.22
2022-10-26T01:08:16.914Z,101286.41
2022-10-26T01:10:44.304Z,101278.72
2022-10-26T01:13:13.076Z,101271.00
2022-10-26T01:15:53.418Z,101265.88
2022-10-26T01:18:45.968Z,101265.03
2022-10-26T01:21:33.846Z,101260.66
2022-10-26T01:24:26.291Z,101258.09
2022-10-26T01:27:23.555Z,101253.78
2022-10-26T01:30:19.536Z,101257.25
2022-10-26T01:33:15.194Z,101252.13
2022-10-26T01:35:55.275Z,101246.13
2022-10-26T01:38:36.627Z,101242.72
2022-10-26T01:41:13.765Z,101240.16
2022-10-26T01:43:48.633Z,101241.88
2022-10-26T01:48:54.199Z,101229.00
2022-10-26T01:51:21.731Z,101229.00
2022-10-26T01:53:49.021Z,101216.91
2022-10-26T01:56:38.931Z,101216.09
2022-10-26T01:59:29.604Z,101210.94
2022-10-26T02:02:23.180Z,101210.13
2022-10-26T02:05:02.003Z,101210.19
2022-10-26T02:07:41.777Z,101211.06
2022-10-26T02:10:27.329Z,101220.56
2022-10-26T02:12:54.273Z,101217.16
2022-10-26T02:15:29.281Z,101219.78
2022-10-26T02:18:03.590Z,101218.09
2022-10-26T02:20:36.115Z,101217.28
2022-10-26T02:23:07.192Z,101227.66
2022-10-26T02:25:40.935Z,101217.44
2022-10-26T02:28:13.006Z,101217.50
2022-10-26T02:30:41.924Z,101216.66
2022-10-26T02:33:12.166Z,101213.31
2022-10-26T02:35:43.312Z,101204.69
2022-10-26T02:38:13.196Z,101209.13
2022-10-26T02:40:41.260Z,101205.72
2022-10-26T02:43:21.958Z,101191.03
2022-10-26T02:45:57.256Z,101191.19
2022-10-26T02:48:24.465Z,101193.88
2022-10-26T02:51:00.113Z,101192.16
2022-10-26T02:53:35.495Z,101182.69
2022-10-26T02:56:26.157Z,101189.69
2022-10-26T02:58:57.545Z,101177.63
2022-10-26T03:01:25.340Z,101188.00
2022-10-26T03:03:57.814Z,101187.19
2022-10-26T03:06:25.408Z,101181.19
2022-10-26T03:08:52.759Z,101179.47
2022-10-26T03:11:19.743Z,101176.88
2022-10-26T03:13:46.790Z,101164.75
2022-10-26T03:16:13.784Z,101168.38
2022-10-26T03:18:40.803Z,101167.56
2022-10-26T03:21:07.862Z,101170.19
2022-10-26T03:23:34.844Z,101178.81
2022-10-26T03:26:01.857Z,101172.81
2022-10-26T03:28:29.043Z,101176.22
2022-10-26T03:30:56.280Z,101171.06
2022-10-26T03:33:25.709Z,101176.22
2022-10-26T03:35:59.475Z,101171.94
2022-10-26T03:38:26.509Z,101176.22
2022-10-26T03:40:53.602Z,101164.22
2022-10-26T03:43:20.635Z,101162.38
2022-10-26T03:45:47.793Z,101169.53
2022-10-26T03:48:14.853Z,101169.59
2022-10-26T03:50:41.879Z,101165.31
2022-10-26T03:53:09.101Z,101171.38
2022-10-26T03:55:36.162Z,101171.38
2022-10-26T03:58:04.559Z,101164.44
2022-10-26T04:00:31.657Z,101159.25
2022-10-26T04:03:00.034Z,101153.13
2022-10-26T04:05:28.982Z,101155.66
2022-10-26T04:07:58.022Z,101153.97
2022-10-26T04:10:26.566Z,101155.66
2022-10-26T04:12:54.696Z,101149.53
2022-10-26T04:15:22.429Z,101158.13
2022-10-26T04:17:56.241Z,101156.28
2022-10-26T04:20:23.728Z,101158.88
2022-10-26T04:22:58.141Z,101158.75
2022-10-26T04:25:27.547Z,101155.22
2022-10-26T04:27:57.776Z,101152.63
2022-10-26T04:30:25.155Z,101151.66
2022-10-26T04:32:52.262Z,101151.72
2022-10-26T04:35:19.315Z,101143.06
2022-10-26T04:37:46.300Z,101153.41
2022-10-26T04:40:13.438Z,101150.75
2022-10-26T04:42:41.730Z,101145.59
2022-10-26T04:45:09.628Z,101145.66
2022-10-26T04:47:37.220Z,101152.56
2022-10-26T04:50:05.187Z,101145.69
2022-10-26T04:52:32.187Z,101144.00
2022-10-26T04:54:59.561Z,101137.13
2022-10-26T04:57:26.613Z,101140.63
2022-10-26T04:59:53.616Z,101141.53
2022-10-26T05:02:21.222Z,101138.97
2022-10-26T05:04:48.506Z,101143.34
2022-10-26T05:07:15.555Z,101133.78
2022-10-26T05:09:43.015Z,101142.50
2022-10-26T05:12:10.012Z,101146.75
2022-10-26T05:14:37.084Z,101149.72
2022-10-26T05:17:04.173Z,101147.16
2022-10-26T05:19:31.161Z,101150.59
2022-10-26T05:22:01.093Z,101143.66
2022-10-26T05:24:28.116Z,101141.69
2022-10-26T05:26:55.211Z,101151.25
2022-10-26T05:29:37.832Z,101152.94
2022-10-26T05:32:05.142Z,101155.53
2022-10-26T05:34:32.209Z,101154.63
2022-10-26T05:36:59.687Z,101152.03
2022-10-26T05:39:26.729Z,101143.22
2022-10-26T05:41:53.720Z,101145.00
2022-10-26T05:44:20.783Z,101134.56
2022-10-26T05:49:19.691Z,101144.16
2022-10-26T05:51:46.687Z,101146.72
2022-10-26T05:54:14.115Z,101154.53
2022-10-26T05:56:42.281Z,101157.28
2022-10-26T05:59:17.046Z,101153.97
2022-10-26T06:02:04.990Z,101164.34
2022-10-26T06:04:48.705Z,101167.03
2022-10-26T06:07:19.991Z,101167.16
2022-10-26T06:09:47.792Z,101158.47
2022-10-26T06:12:18.525Z,101157.66
2022-10-26T06:14:47.356Z,101151.63
2022-10-26T06:17:37.092Z,101157.81
2022-10-26T06:20:22.137Z,101160.44
2022-10-26T06:22:49.496Z,101161.97
2022-10-26T06:25:24.003Z,101161.88
2022-10-26T06:28:18.618Z,101166.31
2022-10-26T06:30:45.756Z,101176.53
2022-10-26T06:33:28.539Z,101169.50
2022-10-26T06:36:08.221Z,101174.66
2022-10-26T06:38:38.021Z,101166.81
2022-10-26T06:41:05.892Z,101168.66
2022-10-26T06:43:35.485Z,101171.06
2022-10-26T06:46:06.312Z,101172.81
2022-10-26T06:48:46.816Z,101174.63
2022-10-26T06:51:16.257Z,101171.28
2022-10-26T06:53:53.043Z,101164.22
2022-10-26T06:56:20.653Z,101172.13
2022-10-26T06:58:49.306Z,101170.44
2022-10-26T07:01:17.602Z,101175.75
2022-10-26T07:03:44.803Z,101173.25
2022-10-26T07:06:11.865Z,101179.53
2022-10-26T07:08:39.017Z,101176.91
2022-10-26T07:11:06.124Z,101176.09
2022-10-26T07:13:33.170Z,101177.13
2022-10-26T07:16:00.207Z,101174.72
2022-10-26T07:18:27.267Z,101173.16
2022-10-26T07:20:54.260Z,101168.06
2022-10-26T07:23:23.182Z,101167.44
2022-10-26T07:25:50.254Z,101178.75
2022-10-26T07:28:17.288Z,101182.38
2022-10-26T07:30:44.394Z,101177.19
2022-10-26T07:33:14.005Z,101174.63
2022-10-26T07:35:42.164Z,101178.88
2022-10-26T07:38:09.568Z,101177.31
2022-10-26T07:40:38.020Z,101183.38
2022-10-26T07:43:05.092Z,101186.84
2022-10-26T07:45:32.338Z,101191.19
2022-10-26T07:47:59.503Z,101198.25
2022-10-26T07:50:27.866Z,101201.75
2022-10-26T07:52:54.980Z,101204.41
2022-10-26T07:55:22.080Z,101205.44
2022-10-26T07:57:52.603Z,101199.53
2022-10-26T08:00:22.175Z,101204.06
2022-10-26T08:02:49.338Z,101191.28
2022-10-26T08:05:16.679Z,101194.06
2022-10-26T08:07:44.781Z,101202.94
2022-10-26T08:10:12.824Z,101202.25
2022-10-26T08:12:40.400Z,101208.56
2022-10-26T08:15:08.210Z,101218.94
2022-10-26T08:17:35.410Z,101232.91
2022-10-26T08:20:02.890Z,101231.28
2022-10-26T08:22:30.901Z,101224.47
2022-10-26T08:24:58.249Z,101221.03
2022-10-26T08:27:25.518Z,101226.34
2022-10-26T08:29:52.569Z,101225.66
2022-10-26T08:32:19.661Z,101224.06
2022-10-26T08:34:46.712Z,101239.81
2022-10-26T08:37:13.807Z,101235.56
2022-10-26T08:39:40.811Z,101234.81
2022-10-26T08:42:31.192Z,101251.41
2022-10-26T08:45:03.716Z,101246.22
2022-10-26T08:47:35.879Z,101243.72
2022-10-26T08:50:10.323Z,101254.22
2022-10-26T08:53:17.730Z,101259.50
2022-10-26T08:55:49.159Z,101264.09
2022-10-26T08:58:20.421Z,101260.72
2022-10-26T09:00:49.893Z,101265.31
2022-10-26T09:03:18.689Z,101264.63
2022-10-26T09:06:04.912Z,101250.03
2022-10-26T09:08:46.184Z,101249.34
2022-10-26T09:11:58.149Z,101257.25
2022-10-26T09:14:39.310Z,101242.56
2022-10-26T09:17:37.937Z,101250.41
2022-10-26T09:20:41.398Z,101247.81
2022-10-26T09:23:08.364Z,101252.22
2022-10-26T09:25:39.751Z,101247.94
2022-10-26T09:28:15.178Z,101240.22
2022-10-26T09:30:44.622Z,101224.56
2022-10-26T09:33:17.752Z,101236.84
2022-10-26T09:35:56.819Z,101234.25
2022-10-26T09:38:33.085Z,101251.66
2022-10-26T09:41:06.524Z,101247.38
2022-10-26T09:43:38.020Z,101238.72
2022-10-26T09:46:05.101Z,101258.72
2022-10-26T09:48:57.985Z,101275.16
2022-10-26T09:51:27.142Z,101272.50
2022-10-26T09:53:56.966Z,101285.53
2022-10-26T09:56:28.330Z,101278.63
2022-10-26T09:59:05.581Z,101290.78
2022-10-26T10:01:39.909Z,101294.28
2022-10-26T10:04:13.985Z,101291.69
2022-10-26T10:06:41.718Z,101299.50
2022-10-26T10:09:22.761Z,101300.41
2022-10-26T10:11:59.565Z,101308.31
2022-10-26T10:14:48.219Z,101302.28
2022-10-26T10:17:22.413Z,101315.38
2022-10-26T10:19:50.232Z,101314.53
2022-10-26T10:22:19.932Z,101312.81
2022-10-26T10:24:55.646Z,101310.25
2022-10-26T10:27:23.573Z,101319.88
2022-10-26T10:29:59.722Z,101320.78
2022-10-26T10:32:35.408Z,101323.41
2022-10-26T10:35:24.270Z,101326.94
2022-10-26T10:37:52.205Z,101332.19
2022-10-26T10:40:26.058Z,101334.81
2022-10-26T10:43:03.561Z,101331.34
2022-10-26T10:45:31.430Z,101337.47
2022-10-26T10:48:23.365Z,101347.94
2022-10-26T10:50:59.887Z,101352.28
2022-10-26T10:53:41.832Z,101354.06
2022-10-26T10:56:11.524Z,101360.16
2022-10-26T10:58:47.957Z,101375.88
2022-10-26T11:01:21.097Z,101365.38
2022-10-26T11:03:59.512Z,101370.63
2022-10-26T11:06:29.972Z,101381.97
2022-10-26T11:08:59.994Z,101382.84
2022-10-26T11:11:45.585Z,101378.50
2022-10-26T11:14:23.729Z,101403.75
2022-10-26T11:17:04.323Z,101396.81
2022-10-26T11:19:42.474Z,101411.59
2022-10-26T11:22:20.618Z,101409.84
2022-10-26T11:24:54.412Z,101412.44
2022-10-26T11:27:44.108Z,101415.06
2022-10-26T11:30:18.564Z,101408.09
2022-10-26T11:32:56.837Z,101410.69
2022-10-26T11:35:44.092Z,101419.41
2022-10-26T11:38:45.295Z,101422.88
2022-10-26T11:41:21.359Z,101419.38
2022-10-26T11:43:53.292Z,101431.53
2022-10-26T11:46:48.460Z,101444.59
2022-10-26T11:49:34.928Z,101441.94
2022-10-26T11:52:17.890Z,101443.69
2022-10-26T11:54:52.123Z,101432.38
2022-10-26T11:57:21.982Z,101420.22
2022-10-26T11:59:53.770Z,101431.56
2022-10-26T12:02:25.713Z,101421.16
2022-10-26T12:05:30.804Z,101425.53
2022-10-26T12:08:08.221Z,101424.66
2022-10-26T12:10:39.595Z,101427.31
2022-10-26T12:13:31.509Z,101450.88
2022-10-26T12:16:13.573Z,101451.75
2022-10-26T12:18:56.380Z,101449.97
2022-10-26T12:21:30.320Z,101450.84
2022-10-26T12:24:21.715Z,101452.59
2022-10-26T12:27:02.583Z,101450.00
2022-10-26T12:29:44.984Z,101456.91
2022-10-26T12:32:31.104Z,101450.84
2022-10-26T12:35:01.079Z,101462.16
2022-10-26T12:37:37.541Z,101458.66
2022-10-26T12:40:32.548Z,101458.69
2022-10-26T12:43:14.932Z,101465.69
2022-10-26T12:45:43.688Z,101450.03
2022-10-26T12:48:43.754Z,101461.38
2022-10-26T12:51:20.822Z,101459.63
2022-10-26T12:54:09.076Z,101470.97
2022-10-26T12:57:08.724Z,101464.00
2022-10-26T12:59:41.648Z,101470.97
2022-10-26T13:02:36.426Z,101469.25
2022-10-26T13:05:41.807Z,101469.22
2022-10-26T13:08:11.630Z,101463.13
2022-10-26T13:10:55.235Z,101463.97
2022-10-26T13:13:24.047Z,101461.38
2022-10-26T13:16:00.163Z,101459.63
2022-10-26T13:18:28.356Z,101466.63
2022-10-26T13:21:11.571Z,101467.50
2022-10-26T13:23:42.309Z,101464.00
2022-10-26T13:26:12.769Z,101472.75
2022-10-26T13:28:39.940Z,101470.13
2022-10-26T13:31:31.470Z,101469.22
2022-10-26T13:34:10.686Z,101483.19
2022-10-26T13:36:56.610Z,101477.97
2022-10-26T13:39:29.105Z,101480.56
2022-10-26T13:41:58.947Z,101483.19
2022-10-26T13:44:31.298Z,101479.69
2022-10-26T13:47:03.226Z,101491.03
2022-10-26T13:49:36.525Z,101495.41
2022-10-26T13:52:05.622Z,101490.16
2022-10-26T13:54:49.935Z,101498.88
2022-10-26T13:57:43.702Z,101497.13
2022-10-26T14:00:19.273Z,101483.16
2022-10-26T14:02:47.003Z,101489.28
2022-10-26T14:05:17.208Z,101491.03
2022-10-26T14:07:54.067Z,101490.16
2022-10-26T14:10:41.639Z,101495.41
2022-10-26T14:13:14.361Z,101496.28
2022-10-26T14:15:48.424Z,101494.53
2022-10-26T14:18:21.311Z,101502.38
2022-10-26T14:20:59.982Z,101513.72
2022-10-26T14:23:45.721Z,101498.88
2022-10-26T14:26:26.103Z,101525.91
2022-10-26T14:28:59.546Z,101532.91
2022-10-26T14:31:32.000Z,101541.63
2022-10-26T14:34:04.098Z,101537.28
2022-10-26T14:36:37.449Z,101540.78
2022-10-26T14:39:16.182Z,101534.66
2022-10-26T14:41:43.556Z,101553.81
2022-10-26T14:44:19.287Z,101546.00
2022-10-26T14:46:46.535Z,101554.72
2022-10-26T14:49:22.657Z,101552.06
2022-10-26T14:51:56.042Z,101553.78
2022-10-26T14:54:25.988Z,101563.34
2022-10-26T14:56:53.146Z,101565.97
2022-10-26T14:59:24.925Z,101571.25
2022-10-26T15:01:56.492Z,101576.50
2022-10-26T15:04:37.515Z,101579.16
2022-10-26T15:07:07.214Z,101585.25
2022-10-26T15:09:43.124Z,101581.75
2022-10-26T15:12:38.456Z,101586.13
2022-10-26T15:15:08.517Z,101587.88
2022-10-26T15:17:42.277Z,101586.97
2022-10-26T15:20:15.963Z,101596.59
2022-10-26T15:22:49.034Z,101599.22
2022-10-26T15:25:23.053Z,101597.44
2022-10-26T15:27:51.333Z,101606.16
2022-10-26T15:30:23.159Z,101597.44
2022-10-26T15:32:51.824Z,101602.66
2022-10-26T15:35:18.928Z,101593.94
2022-10-26T15:37:47.456Z,101599.16
2022-10-26T15:40:15.073Z,101605.28
2022-10-26T15:42:45.196Z,101609.63
2022-10-26T15:45:24.403Z,101608.72
2022-10-26T15:47:53.229Z,101606.13
2022-10-26T15:50:22.863Z,101613.06
2022-10-26T15:52:50.983Z,101620.00
2022-10-26T15:55:18.207Z,101624.38
2022-10-26T15:57:46.037Z,101614.72
2022-10-26T16:00:18.486Z,101627.75
2022-10-26T16:02:48.961Z,101636.44
2022-10-26T16:05:16.922Z,101645.97
2022-10-26T16:07:46.695Z,101643.34
2022-10-26T16:10:25.058Z,101636.31
2022-10-26T16:12:52.851Z,101631.91
2022-10-26T16:15:24.711Z,101644.03
2022-10-26T16:17:52.141Z,101651.81
2022-10-26T16:20:23.430Z,101659.59
2022-10-26T16:22:52.561Z,101656.94
2022-10-26T16:25:23.827Z,101667.34
2022-10-26T16:27:51.638Z,101667.34
2022-10-26T16:30:20.235Z,101645.53
2022-10-26T16:32:47.479Z,101654.25
2022-10-26T16:35:15.086Z,101662.13
2022-10-26T16:37:42.384Z,101667.31
2022-10-26T16:40:10.033Z,101663.75
2022-10-26T16:42:37.098Z,101654.16
2022-10-26T16:45:04.573Z,101654.09
2022-10-26T16:47:39.699Z,101671.44
2022-10-26T16:50:11.601Z,101674.88
2022-10-26T16:52:39.334Z,101678.28
2022-10-26T16:55:08.983Z,101680.84
2022-10-26T16:57:37.009Z,101677.34
2022-10-26T17:00:06.424Z,101685.16
2022-10-26T17:02:33.737Z,101684.25
2022-10-26T17:05:07.188Z,101678.94
2022-10-26T17:07:35.580Z,101684.09
2022-10-26T17:10:02.719Z,101689.34
2022-10-26T17:12:29.960Z,101693.63
2022-10-26T17:14:58.804Z,101700.59
2022-10-26T17:17:25.945Z,101693.50
2022-10-26T17:19:53.188Z,101709.19
2022-10-26T17:22:20.209Z,101712.59
2022-10-26T17:24:47.299Z,101712.59
2022-10-26T17:27:16.495Z,101727.34
2022-10-26T17:29:43.481Z,101725.56
2022-10-26T17:32:10.504Z,101737.78
2022-10-26T17:34:37.532Z,101736.00
2022-10-26T17:37:04.627Z,101743.81
2022-10-26T17:39:31.609Z,101744.66
2022-10-26T17:41:59.245Z,101747.22
2022-10-26T17:44:26.478Z,101751.56
2022-10-26T17:46:53.486Z,101755.88
2022-10-26T17:49:24.848Z,101758.44
2022-10-26T17:51:53.891Z,101761.78
2022-10-26T17:54:21.050Z,101777.47
2022-10-26T17:56:48.101Z,101783.44
2022-10-26T17:59:15.160Z,101787.00
2022-10-26T18:01:43.386Z,101793.97
2022-10-26T18:04:10.647Z,101787.88
2022-10-26T18:06:37.681Z,101786.16
2022-10-26T18:09:04.745Z,101791.31
2022-10-26T18:14:03.952Z,101798.16
2022-10-26T18:16:31.399Z,101791.94
2022-10-26T18:19:01.651Z,101787.56
2022-10-26T18:21:31.148Z,101806.66
2022-10-26T18:23:58.498Z,101807.47
2022-10-26T18:26:29.367Z,101824.88
2022-10-26T18:28:58.364Z,101822.28
2022-10-26T18:31:27.018Z,101819.66
2022-10-26T18:33:56.215Z,101824.03
2022-10-26T18:36:24.105Z,101822.34
2022-10-26T18:38:51.663Z,101817.84
2022-10-26T18:41:20.716Z,101826.66
2022-10-26T18:43:50.280Z,101839.66
2022-10-26T18:46:23.991Z,101830.94
2022-10-26T18:48:51.545Z,101829.00
2022-10-26T18:51:22.342Z,101840.44
2022-10-26T18:53:49.536Z,101841.28
2022-10-26T18:56:19.293Z,101850.91
2022-10-26T18:58:49.340Z,101850.94
2022-10-26T19:01:19.924Z,101860.53
2022-10-26T19:03:48.040Z,101865.84
2022-10-26T19:06:20.934Z,101856.34
2022-10-26T19:08:48.073Z,101858.91
2022-10-26T19:11:17.449Z,101857.22
2022-10-26T19:13:46.053Z,101863.31
2022-10-26T19:16:33.509Z,101872.81
2022-10-26T19:19:05.924Z,101866.66
2022-10-26T19:21:32.989Z,101878.84
2022-10-26T19:24:01.343Z,101880.50
2022-10-26T19:26:37.789Z,101875.31
2022-10-26T19:29:07.982Z,101870.88
2022-10-26T19:31:38.271Z,101877.00
2022-10-26T19:34:06.042Z,101870.13
2022-10-26T19:36:33.814Z,101877.09
2022-10-26T19:39:03.693Z,101883.97
2022-10-26T19:41:31.330Z,101884.72
2022-10-26T19:46:31.194Z,101901.22
2022-10-26T19:49:01.005Z,101906.50
2022-10-26T19:51:30.082Z,101912.56
2022-10-26T19:54:04.222Z,101903.84
2022-10-26T19:56:32.602Z,101918.72
2022-10-26T19:59:01.060Z,101916.09
2022-10-26T20:01:28.281Z,101928.22
2022-10-26T20:03:55.373Z,101929.91
2022-10-26T20:06:22.425Z,101929.00
2022-10-26T20:08:50.131Z,101933.31
2022-10-26T20:11:18.445Z,101925.38
2022-10-26T20:13:47.231Z,101939.22
2022-10-26T20:16:16.666Z,101934.78
2022-10-26T20:18:47.671Z,101923.31
2022-10-26T20:21:17.273Z,101937.25
2022-10-26T20:23:45.047Z,101938.00
2022-10-26T20:26:18.734Z,101936.22
2022-10-26T20:28:49.100Z,101946.56
2022-10-26T20:31:16.302Z,101943.03
2022-10-26T20:33:43.368Z,101940.41
2022-10-26T20:36:10.622Z,101947.28
2022-10-26T20:38:38.927Z,101950.72
2022-10-26T20:41:09.316Z,101944.63
2022-10-26T20:43:39.431Z,101930.53
2022-10-26T20:46:10.488Z,101939.25
2022-10-26T20:48:38.672Z,101928.75
2022-10-26T20:51:26.328Z,101935.59
2022-10-26T20:54:15.047Z,101937.97
2022-10-26T20:56:42.336Z,101957.06
2022-10-26T21:02:01.233Z,101969.94
2022-10-26T21:04:28.373Z,101963.78
2022-10-26T21:06:55.418Z,101965.44
2022-10-26T21:09:23.582Z,101962.78
2022-10-26T21:11:50.798Z,101974.84
2022-10-26T21:14:17.804Z,101970.53
2022-10-26T21:16:44.925Z,101973.03
2022-10-26T21:19:12.028Z,101974.78
2022-10-26T21:21:39.057Z,101975.66
2022-10-26T21:24:06.450Z,101969.59
2022-10-26T21:26:33.485Z,101974.78
2022-10-26T21:29:03.533Z,101973.03
2022-10-26T21:31:31.093Z,101963.50
2022-10-26T21:33:58.496Z,101961.84
2022-10-26T21:36:25.582Z,101962.72
2022-10-26T21:38:52.637Z,101957.44
2022-10-26T21:41:21.001Z,101967.84
2022-10-26T21:43:59.076Z,101967.72
2022-10-26T21:46:37.900Z,101965.88
2022-10-26T21:49:05.692Z,101970.19
2022-10-26T21:51:32.750Z,101961.38
2022-10-26T21:54:00.094Z,101969.16
2022-10-26T21:56:27.214Z,101970.88
2022-10-26T21:58:54.194Z,101974.25
2022-10-26T22:01:22.717Z,101970.78
2022-10-26T22:03:50.084Z,101970.72
2022-10-26T22:08:47.298Z,101976.78
2022-10-26T22:11:19.875Z,101981.81
2022-10-26T22:13:47.917Z,101984.41
2022-10-26T22:16:23.183Z,101967.69
2022-10-26T22:18:51.969Z,101980.00
2022-10-26T22:21:20.152Z,101987.69
2022-10-26T22:23:47.509Z,101980.69
2022-10-26T22:26:25.057Z,101980.69
2022-10-26T22:28:55.069Z,101982.31
2022-10-26T22:34:06.489Z,101979.69
2022-10-26T22:36:35.373Z,101979.69
2022-10-26T22:39:03.221Z,101984.09
2022-10-26T22:41:31.275Z,101988.44
2022-10-26T22:43:58.557Z,101984.25
2022-10-26T22:46:28.204Z,101984.34
2022-10-26T22:49:02.684Z,101981.78
2022-10-26T22:51:32.223Z,101984.41
2022-10-26T22:54:01.651Z,101994.09
2022-10-26T22:56:30.973Z,101992.41
2022-10-26T22:58:58.571Z,101995.94
2022-10-26T23:01:31.386Z,101987.19
2022-10-26T23:03:59.887Z,101999.50
2022-10-26T23:06:29.976Z,101992.63
2022-10-26T23:08:57.658Z,101993.53
2022-10-26T23:11:26.934Z,101990.16
2022-10-26T23:14:00.006Z,101994.53
2022-10-26T23:16:27.984Z,102003.28
2022-10-26T23:18:55.220Z,102008.53
2022-10-26T23:21:24.263Z,102004.19
2022-10-26T23:23:51.371Z,102005.94
2022-10-26T23:26:21.035Z,102005.06
2022-10-26T23:28:48.488Z,102010.25
2022-10-26T23:31:21.097Z,102004.13
2022-10-26T23:33:51.617Z,102014.53
2022-10-26T23:36:19.161Z,102016.22
2022-10-26T23:38:46.593Z,102004.72
2022-10-26T23:41:13.913Z,102015.13
2022-10-26T23:43:44.003Z,102013.28
2022-10-26T23:46:11.088Z,102008.81
2022-10-26T23:48:38.166Z,102013.94
2022-10-26T23:51:05.262Z,101999.78
2022-10-26T23:53:32.563Z,102006.72
2022-10-26T23:56:00.132Z,102005.97
2022-10-26T23:58:27.166Z,102001.47
